createdAt,value
2022-10-05T00:01:03.150Z,4.87
2022-10-05T00:03:33.551Z,5.47
2022-10-05T00:06:01.339Z,4.50
2022-10-05T00:08:31.982Z,5.00
2022-10-05T00:11:01.026Z,3.93
2022-10-05T00:13:29.117Z,4.47
2022-10-05T00:15:59.253Z,6.63
2022-10-05T00:18:27.702Z,4.23
2022-10-05T00:20:55.369Z,4.87
2022-10-05T00:23:25.319Z,6.93
2022-10-05T00:25:52.668Z,5.37
2022-10-05T00:28:23.784Z,4.20
2022-10-05T00:30:51.195Z,8.10
2022-10-05T00:33:18.764Z,6.53
2022-10-05T00:35:46.292Z,7.00
2022-10-05T00:38:13.752Z,5.77
2022-10-05T00:40:47.115Z,12.00
2022-10-05T00:43:21.884Z,8.33
2022-10-05T00:45:53.453Z,7.90
2022-10-05T00:48:24.256Z,6.53
2022-10-05T00:51:02.286Z,6.20
2022-10-05T00:53:34.718Z,11.00
2022-10-05T00:56:04.395Z,5.40
2022-10-05T00:58:39.073Z,7.90
2022-10-05T01:01:10.586Z,7.87
2022-10-05T01:03:43.349Z,5.30
2022-10-05T01:06:13.627Z,6.30
2022-10-05T01:08:44.342Z,5.50
2022-10-05T01:11:14.942Z,7.57
2022-10-05T01:13:47.028Z,5.13
2022-10-05T01:16:17.476Z,10.67
2022-10-05T01:18:47.938Z,6.50
2022-10-05T01:21:18.509Z,5.70
2022-10-05T01:24:00.798Z,7.07
2022-10-05T01:26:49.519Z,5.90
2022-10-05T01:29:19.765Z,6.03
2022-10-05T01:31:50.775Z,11.70
2022-10-05T01:34:22.227Z,5.63
2022-10-05T01:36:52.678Z,7.00
2022-10-05T01:39:25.614Z,6.23
2022-10-05T01:41:57.151Z,6.60
2022-10-05T01:44:29.846Z,8.10
2022-10-05T01:47:03.111Z,6.83
2022-10-05T01:49:37.026Z,5.27
2022-10-05T01:52:09.447Z,7.10
2022-10-05T01:54:43.392Z,7.07
2022-10-05T01:57:14.513Z,6.63
2022-10-05T01:59:48.841Z,10.33
2022-10-05T02:02:18.539Z,6.37
2022-10-05T02:05:03.303Z,14.40
2022-10-05T02:07:33.302Z,6.43
2022-10-05T02:10:03.068Z,7.80
2022-10-05T02:12:32.031Z,9.00
2022-10-05T02:15:03.894Z,8.00
2022-10-05T02:17:33.617Z,7.70
2022-10-05T02:20:02.508Z,7.03
2022-10-05T02:22:32.144Z,8.73
2022-10-05T02:25:00.404Z,8.10
2022-10-05T02:27:29.322Z,7.40
2022-10-05T02:29:57.995Z,7.60
2022-10-05T02:32:29.153Z,8.37
2022-10-05T02:35:00.080Z,9.00
2022-10-05T02:37:34.743Z,7.87
2022-10-05T02:40:12.163Z,7.20
2022-10-05T02:42:43.012Z,7.07
2022-10-05T02:45:14.750Z,7.33
2022-10-05T02:47:48.032Z,8.93
2022-10-05T02:50:24.302Z,6.57
2022-10-05T02:52:56.100Z,6.03
2022-10-05T02:55:26.180Z,8.17
2022-10-05T02:57:58.979Z,7.83
2022-10-05T03:00:26.945Z,7.23
2022-10-05T03:02:59.035Z,9.13
2022-10-05T03:05:27.066Z,8.70
2022-10-05T03:07:57.671Z,7.10
2022-10-05T03:10:29.473Z,9.50
2022-10-05T03:13:01.569Z,9.63
2022-10-05T03:15:48.062Z,9.17
2022-10-05T03:18:26.301Z,6.00
2022-10-05T03:20:59.454Z,8.57
2022-10-05T03:23:34.966Z,7.97
2022-10-05T03:26:07.643Z,8.63
2022-10-05T03:28:39.974Z,6.87
2022-10-05T03:31:12.710Z,7.83
2022-10-05T03:33:45.372Z,10.10
2022-10-05T03:36:16.987Z,9.07
2022-10-05T03:38:48.772Z,7.20
2022-10-05T03:41:18.791Z,6.57
2022-10-05T03:44:01.254Z,7.00
2022-10-05T03:46:33.554Z,8.53
2022-10-05T03:49:05.851Z,9.73
2022-10-05T03:51:35.835Z,8.13
2022-10-05T03:54:06.696Z,9.93
2022-10-05T03:56:37.223Z,7.40
2022-10-05T03:59:10.048Z,9.23
2022-10-05T04:01:40.663Z,10.30
2022-10-05T04:04:12.322Z,8.83
2022-10-05T04:06:42.954Z,7.50
2022-10-05T04:09:12.956Z,7.93
2022-10-05T04:11:42.860Z,7.17
2022-10-05T04:14:13.271Z,9.03
2022-10-05T04:16:42.298Z,10.93
2022-10-05T04:19:15.630Z,9.20
2022-10-05T04:21:49.155Z,10.20
2022-10-05T04:24:19.418Z,7.43
2022-10-05T04:26:50.482Z,7.80
2022-10-05T04:29:24.741Z,8.87
2022-10-05T04:31:58.019Z,10.57
2022-10-05T04:34:40.606Z,10.10
2022-10-05T04:37:11.647Z,10.23
2022-10-05T04:39:45.603Z,11.40
2022-10-05T04:42:18.412Z,9.57
2022-10-05T04:45:03.882Z,8.60
2022-10-05T04:47:40.612Z,11.63
2022-10-05T04:50:18.621Z,10.60
2022-10-05T04:52:52.097Z,8.70
2022-10-05T04:55:23.393Z,9.27
2022-10-05T04:57:55.021Z,8.17
2022-10-05T05:00:23.638Z,8.93
2022-10-05T05:03:05.881Z,8.87
2022-10-05T05:06:05.154Z,8.00
2022-10-05T05:08:37.580Z,9.60
2022-10-05T05:11:12.454Z,9.73
2022-10-05T05:14:01.205Z,8.87
2022-10-05T05:16:33.503Z,9.00
2022-10-05T05:19:11.156Z,11.60
2022-10-05T05:21:43.655Z,9.23
2022-10-05T05:24:16.208Z,13.30
2022-10-05T05:26:51.808Z,13.77
2022-10-05T05:29:23.488Z,11.03
2022-10-05T05:31:54.398Z,8.83
2022-10-05T05:34:34.523Z,11.70
2022-10-05T05:37:07.586Z,9.47
2022-10-05T05:39:41.026Z,11.03
2022-10-05T05:42:17.680Z,10.40
2022-10-05T05:44:47.535Z,8.10
2022-10-05T05:47:19.795Z,10.47
2022-10-05T05:49:55.728Z,10.50
2022-10-05T05:52:26.586Z,9.43
2022-10-05T05:54:55.855Z,9.00
2022-10-05T05:57:27.399Z,8.30
2022-10-05T05:59:57.748Z,9.57
2022-10-05T06:02:28.266Z,8.67
2022-10-05T06:04:57.918Z,11.30
2022-10-05T06:07:30.538Z,9.80
2022-10-05T06:10:01.747Z,11.70
2022-10-05T06:12:30.975Z,7.70
2022-10-05T06:14:59.795Z,8.93
2022-10-05T06:17:30.003Z,8.47
2022-10-05T06:20:03.924Z,8.27
2022-10-05T06:22:37.008Z,8.93
2022-10-05T06:25:09.555Z,11.03
2022-10-05T06:27:37.761Z,7.43
2022-10-05T06:30:06.841Z,8.90
2022-10-05T06:32:36.058Z,10.10
2022-10-05T06:35:10.724Z,9.60
2022-10-05T06:37:45.528Z,8.90
2022-10-05T06:40:18.803Z,10.73
2022-10-05T06:42:53.977Z,11.13
2022-10-05T06:45:26.697Z,16.47
2022-10-05T06:48:00.462Z,17.03
2022-10-05T06:50:33.636Z,15.73
2022-10-05T06:53:09.753Z,10.13
2022-10-05T06:55:44.067Z,11.30
2022-10-05T06:58:21.375Z,8.40
2022-10-05T07:00:51.522Z,9.27
2022-10-05T07:03:23.237Z,6.73
2022-10-05T07:05:56.459Z,9.23
2022-10-05T07:08:30.288Z,9.67
2022-10-05T07:11:06.903Z,7.07
2022-10-05T07:13:48.122Z,6.77
2022-10-05T07:16:19.739Z,6.77
2022-10-05T07:18:51.478Z,8.70
2022-10-05T07:21:22.257Z,8.00
2022-10-05T07:23:54.988Z,9.30
2022-10-05T07:26:24.648Z,7.23
2022-10-05T07:28:55.027Z,7.20
2022-10-05T07:31:28.422Z,9.43
2022-10-05T07:33:59.883Z,6.50
2022-10-05T07:36:53.730Z,8.73
2022-10-05T07:39:42.186Z,6.23
2022-10-05T07:42:20.720Z,7.80
2022-10-05T07:44:49.744Z,6.80
2022-10-05T07:47:21.775Z,8.20
2022-10-05T07:49:54.126Z,7.13
2022-10-05T07:52:24.720Z,11.33
2022-10-05T07:54:59.366Z,6.17
2022-10-05T07:57:33.859Z,7.80
2022-10-05T08:00:02.278Z,7.37
2022-10-05T08:02:33.132Z,6.30
2022-10-05T08:05:04.000Z,10.23
2022-10-05T08:07:33.259Z,7.87
2022-10-05T08:10:05.171Z,6.90
2022-10-05T08:12:34.180Z,8.67
2022-10-05T08:15:04.244Z,7.17
2022-10-05T08:17:45.035Z,6.20
2022-10-05T08:20:20.709Z,6.43
2022-10-05T08:22:50.291Z,9.13
2022-10-05T08:25:23.165Z,7.40
2022-10-05T08:27:53.550Z,5.63
2022-10-05T08:30:21.108Z,6.27
2022-10-05T08:32:51.330Z,6.40
2022-10-05T08:35:24.257Z,7.33
2022-10-05T08:37:51.983Z,6.37
2022-10-05T08:40:39.862Z,6.30
2022-10-05T08:43:14.696Z,9.60
2022-10-05T08:45:47.625Z,5.07
2022-10-05T08:48:26.653Z,4.80
2022-10-05T08:51:03.371Z,5.70
2022-10-05T08:53:37.548Z,5.90
2022-10-05T08:56:28.459Z,5.53
2022-10-05T08:59:04.749Z,4.73
2022-10-05T09:01:37.954Z,7.80
2022-10-05T09:04:14.040Z,4.93
2022-10-05T09:07:00.011Z,4.77
2022-10-05T09:09:45.352Z,10.13
2022-10-05T09:12:23.575Z,8.73
2022-10-05T09:15:23.879Z,5.53
2022-10-05T09:18:07.265Z,4.53
2022-10-05T09:20:41.571Z,5.17
2022-10-05T09:23:14.069Z,4.77
2022-10-05T09:25:55.435Z,4.47
2022-10-05T09:28:29.982Z,4.20
2022-10-05T09:31:08.576Z,4.17
2022-10-05T09:33:48.883Z,3.80
2022-10-05T09:36:33.983Z,4.00
2022-10-05T09:39:18.771Z,4.13
2022-10-05T09:41:59.492Z,6.00
2022-10-05T09:44:42.243Z,5.27
2022-10-05T09:47:36.639Z,4.00
2022-10-05T09:50:10.759Z,5.13
2022-10-05T09:52:51.400Z,4.70
2022-10-05T09:55:31.551Z,5.13
2022-10-05T09:58:17.543Z,3.67
2022-10-05T10:01:09.221Z,3.00
2022-10-05T10:03:54.974Z,3.60
2022-10-05T10:06:32.861Z,3.50
2022-10-05T10:09:17.005Z,3.17
2022-10-05T10:12:07.468Z,3.27
2022-10-05T10:14:51.523Z,4.40
2022-10-05T10:17:33.899Z,3.07
2022-10-05T10:20:06.384Z,2.83
2022-10-05T10:22:50.044Z,3.10
2022-10-05T10:25:38.190Z,3.00
2022-10-05T10:28:20.983Z,2.70
2022-10-05T10:30:57.283Z,2.90
2022-10-05T10:33:42.228Z,3.13
2022-10-05T10:36:14.168Z,3.27
2022-10-05T10:38:47.083Z,2.67
2022-10-05T10:41:35.671Z,2.77
2022-10-05T10:44:20.996Z,3.20
2022-10-05T10:46:54.514Z,2.57
2022-10-05T10:49:36.734Z,6.17
2022-10-05T10:52:12.931Z,2.87
2022-10-05T10:55:06.740Z,3.30
2022-10-05T10:57:41.452Z,2.50
2022-10-05T11:00:28.183Z,2.20
2022-10-05T11:03:15.741Z,2.90
2022-10-05T11:06:08.125Z,3.57
2022-10-05T11:08:49.716Z,2.10
2022-10-05T11:11:36.309Z,2.37
2022-10-05T11:14:16.850Z,2.20
2022-10-05T11:17:02.228Z,2.10
2022-10-05T11:20:02.854Z,1.87
2022-10-05T11:22:41.888Z,2.60
2022-10-05T11:25:21.297Z,2.50
2022-10-05T11:28:00.944Z,2.23
2022-10-05T11:30:50.483Z,2.50
2022-10-05T11:33:26.281Z,4.40
2022-10-05T11:36:06.953Z,2.10
2022-10-05T11:38:48.191Z,1.73
2022-10-05T11:41:33.701Z,2.00
2022-10-05T11:44:13.448Z,2.10
2022-10-05T11:46:44.457Z,2.60
2022-10-05T11:49:20.760Z,2.27
2022-10-05T11:51:52.177Z,2.30
2022-10-05T11:54:26.195Z,2.97
2022-10-05T11:56:56.666Z,2.00
2022-10-05T11:59:28.088Z,2.30
2022-10-05T12:01:58.340Z,5.47
2022-10-05T12:04:33.920Z,3.63
2022-10-05T12:07:08.430Z,2.97
2022-10-05T12:10:04.656Z,2.50
2022-10-05T12:12:35.900Z,2.23
2022-10-05T12:15:06.049Z,2.00
2022-10-05T12:17:37.596Z,2.23
2022-10-05T12:20:09.211Z,1.97
2022-10-05T12:22:39.231Z,2.73
2022-10-05T12:25:16.924Z,1.80
2022-10-05T12:27:46.235Z,2.50
2022-10-05T12:30:15.707Z,2.20
2022-10-05T12:32:48.710Z,6.03
2022-10-05T12:35:30.035Z,2.20
2022-10-05T12:38:12.487Z,2.87
2022-10-05T12:40:42.724Z,2.33
2022-10-05T12:43:15.073Z,7.87
2022-10-05T12:45:47.378Z,1.87
2022-10-05T12:48:20.384Z,2.60
2022-10-05T12:50:50.224Z,2.03
2022-10-05T12:53:37.836Z,2.57
2022-10-05T12:56:09.329Z,1.90
2022-10-05T12:58:43.407Z,2.20
2022-10-05T13:01:18.500Z,4.00
2022-10-05T13:03:50.756Z,2.07
2022-10-05T13:06:22.011Z,1.97
2022-10-05T13:08:54.618Z,3.93
2022-10-05T13:11:24.798Z,2.90
2022-10-05T13:14:03.028Z,1.87
2022-10-05T13:16:36.564Z,1.87
2022-10-05T13:19:14.247Z,2.10
2022-10-05T13:21:52.651Z,2.13
2022-10-05T13:24:23.352Z,1.50
2022-10-05T13:26:54.114Z,2.10
2022-10-05T13:29:24.936Z,2.23
2022-10-05T13:31:54.644Z,9.73
2022-10-05T13:34:26.900Z,2.10
2022-10-05T13:37:02.634Z,2.10
2022-10-05T13:39:39.887Z,2.10
2022-10-05T13:42:09.981Z,2.80
2022-10-05T13:44:41.311Z,2.83
2022-10-05T13:47:13.982Z,4.17
2022-10-05T13:52:22.460Z,2.30
2022-10-05T13:54:56.566Z,2.20
2022-10-05T13:57:32.256Z,2.40
2022-10-05T14:00:02.231Z,2.70
2022-10-05T14:02:30.816Z,4.67
2022-10-05T14:05:02.074Z,2.13
2022-10-05T14:07:34.265Z,2.63
2022-10-05T14:10:04.743Z,5.10
2022-10-05T14:12:38.525Z,4.03
2022-10-05T14:15:19.619Z,3.90
2022-10-05T14:17:47.267Z,2.00
2022-10-05T14:20:19.619Z,2.23
2022-10-05T14:22:49.417Z,2.20
2022-10-05T14:25:19.754Z,6.47
2022-10-05T14:27:51.316Z,2.70
2022-10-05T14:30:20.095Z,2.30
2022-10-05T14:32:49.878Z,1.80
2022-10-05T14:35:18.401Z,6.63
2022-10-05T14:37:50.025Z,2.27
2022-10-05T14:40:30.074Z,4.70
2022-10-05T14:42:57.588Z,5.33
2022-10-05T14:45:26.270Z,3.80
2022-10-05T14:47:56.181Z,2.00
2022-10-05T14:50:26.168Z,8.90
2022-10-05T14:53:04.350Z,2.50
2022-10-05T14:55:39.733Z,11.40
2022-10-05T14:58:15.799Z,1.97
2022-10-05T15:00:50.292Z,2.23
2022-10-05T15:03:24.034Z,2.20
2022-10-05T15:05:52.788Z,2.30
2022-10-05T15:08:25.294Z,2.30
2022-10-05T15:10:57.714Z,2.93
2022-10-05T15:13:26.595Z,3.80
2022-10-05T15:15:55.833Z,2.40
2022-10-05T15:18:31.677Z,3.57
2022-10-05T15:21:04.186Z,6.23
2022-10-05T15:23:36.364Z,2.90
2022-10-05T15:26:10.086Z,3.40
2022-10-05T15:28:41.062Z,2.67
2022-10-05T15:31:16.450Z,5.00
2022-10-05T15:33:51.121Z,5.20
2022-10-05T15:36:19.985Z,2.73
2022-10-05T15:38:53.478Z,5.80
2022-10-05T15:41:25.729Z,3.87
2022-10-05T15:43:59.504Z,3.20
2022-10-05T15:46:34.437Z,2.30
2022-10-05T15:49:08.307Z,3.10
2022-10-05T15:51:40.583Z,4.93
2022-10-05T15:54:30.014Z,3.70
2022-10-05T15:57:02.761Z,3.70
2022-10-05T15:59:32.933Z,3.10
2022-10-05T16:02:01.697Z,5.03
2022-10-05T16:04:34.772Z,2.93
2022-10-05T16:07:20.774Z,3.20
2022-10-05T16:09:51.934Z,3.33
2022-10-05T16:12:27.022Z,2.43
2022-10-05T16:15:01.071Z,2.80
2022-10-05T16:17:35.794Z,4.70
2022-10-05T16:20:07.079Z,11.73
2022-10-05T16:22:43.401Z,2.70
2022-10-05T16:25:14.723Z,4.33
2022-10-05T16:27:48.958Z,3.20
2022-10-05T16:30:18.072Z,3.37
2022-10-05T16:32:49.892Z,3.40
2022-10-05T16:35:21.340Z,5.80
2022-10-05T16:37:54.414Z,3.87
2022-10-05T16:40:28.365Z,5.10
2022-10-05T16:43:02.080Z,7.73
2022-10-05T16:45:44.965Z,3.17
2022-10-05T16:48:13.968Z,3.50
2022-10-05T16:50:46.190Z,3.80
2022-10-05T16:53:18.378Z,4.47
2022-10-05T16:55:48.151Z,3.73
2022-10-05T16:58:18.963Z,6.53
2022-10-05T17:00:52.950Z,3.50
2022-10-05T17:03:25.176Z,3.93
2022-10-05T17:05:59.586Z,3.43
2022-10-05T17:08:49.211Z,4.33
2022-10-05T17:11:24.158Z,3.30
2022-10-05T17:14:04.822Z,6.17
2022-10-05T17:16:41.262Z,5.10
2022-10-05T17:19:19.311Z,6.40
2022-10-05T17:21:49.830Z,5.83
2022-10-05T17:24:25.455Z,5.60
2022-10-05T17:26:58.379Z,6.00
2022-10-05T17:29:32.080Z,4.40
2022-10-05T17:32:09.396Z,3.23
2022-10-05T17:34:38.588Z,3.00
2022-10-05T17:37:16.881Z,3.20
2022-10-05T17:39:47.440Z,5.40
2022-10-05T17:42:34.142Z,3.17
2022-10-05T17:45:22.856Z,3.20
2022-10-05T17:47:56.737Z,16.47
2022-10-05T17:50:55.602Z,3.97
2022-10-05T17:53:40.968Z,5.07
2022-10-05T17:56:08.905Z,3.17
2022-10-05T17:59:00.435Z,3.20
2022-10-05T18:01:30.688Z,4.40
2022-10-05T18:04:19.424Z,3.63
2022-10-05T18:06:49.873Z,3.47
2022-10-05T18:09:36.081Z,3.30
2022-10-05T18:12:12.298Z,5.57
2022-10-05T18:14:55.082Z,5.60
2022-10-05T18:17:41.975Z,4.63
2022-10-05T18:20:21.627Z,4.20
2022-10-05T18:22:50.373Z,6.63
2022-10-05T18:25:23.832Z,3.23
2022-10-05T18:27:55.102Z,3.87
2022-10-05T18:30:23.136Z,2.90
2022-10-05T18:33:07.828Z,3.70
2022-10-05T18:35:42.855Z,5.33
2022-10-05T18:38:14.294Z,4.00
2022-10-05T18:40:47.764Z,6.37
2022-10-05T18:43:23.224Z,3.00
2022-10-05T18:45:58.569Z,4.00
2022-10-05T18:48:31.670Z,4.57
2022-10-05T18:51:01.315Z,2.80
2022-10-05T18:53:33.363Z,2.97
2022-10-05T18:56:03.799Z,4.87
2022-10-05T18:58:36.876Z,4.90
2022-10-05T19:01:26.897Z,3.13
2022-10-05T19:04:04.510Z,4.17
2022-10-05T19:06:35.572Z,4.27
2022-10-05T19:09:09.947Z,3.80
2022-10-05T19:11:39.537Z,5.23
2022-10-05T19:14:11.567Z,7.80
2022-10-05T19:16:46.319Z,9.30
2022-10-05T19:19:29.336Z,7.27
2022-10-05T19:22:03.851Z,4.93
2022-10-05T19:24:40.560Z,4.20
2022-10-05T19:27:12.015Z,4.27
2022-10-05T19:29:57.068Z,8.60
2022-10-05T19:32:28.753Z,7.00
2022-10-05T19:35:06.591Z,5.90
2022-10-05T19:37:38.584Z,11.17
2022-10-05T19:40:11.043Z,4.43
2022-10-05T19:42:46.086Z,5.13
2022-10-05T19:45:17.743Z,3.40
2022-10-05T19:47:49.810Z,5.10
2022-10-05T19:50:26.060Z,6.30
2022-10-05T19:52:58.349Z,3.00
2022-10-05T19:55:26.795Z,6.73
2022-10-05T19:57:54.918Z,5.90
2022-10-05T20:00:24.641Z,4.23
2022-10-05T20:02:52.437Z,6.53
2022-10-05T20:05:20.073Z,3.10
2022-10-05T20:07:48.852Z,3.40
2022-10-05T20:10:24.385Z,6.30
2022-10-05T20:12:52.922Z,2.93
2022-10-05T20:15:38.913Z,2.30
2022-10-05T20:18:38.807Z,3.30
2022-10-05T20:21:06.200Z,2.40
2022-10-05T20:23:35.922Z,5.73
2022-10-05T20:26:21.127Z,3.00
2022-10-05T20:28:48.713Z,3.13
2022-10-05T20:31:19.988Z,2.77
2022-10-05T20:33:48.368Z,4.80
2022-10-05T20:36:15.750Z,6.93
2022-10-05T20:38:44.860Z,3.37
2022-10-05T20:41:12.252Z,2.43
2022-10-05T20:43:40.428Z,2.57
2022-10-05T20:46:08.517Z,3.03
2022-10-05T20:48:36.017Z,3.63
2022-10-05T20:51:03.367Z,3.70
2022-10-05T20:53:30.863Z,2.60
2022-10-05T20:55:59.734Z,9.27
2022-10-05T20:58:27.431Z,11.07
2022-10-05T21:01:12.539Z,5.47
2022-10-05T21:03:41.911Z,2.77
2022-10-05T21:06:09.440Z,4.00
2022-10-05T21:08:38.095Z,4.67
2022-10-05T21:11:08.862Z,3.70
2022-10-05T21:13:38.456Z,5.57
2022-10-05T21:16:08.608Z,3.20
2022-10-05T21:18:37.222Z,6.27
2022-10-05T21:21:04.745Z,2.57
2022-10-05T21:23:32.519Z,4.63
2022-10-05T21:25:59.907Z,2.87
2022-10-05T21:28:29.175Z,3.10
2022-10-05T21:30:56.775Z,4.80
2022-10-05T21:33:24.265Z,5.37
2022-10-05T21:35:51.738Z,2.10
2022-10-05T21:38:19.119Z,2.73
2022-10-05T21:40:46.611Z,6.60
2022-10-05T21:43:14.361Z,2.37
2022-10-05T21:45:43.869Z,2.37
2022-10-05T21:48:11.788Z,2.30
2022-10-05T21:50:39.660Z,2.40
2022-10-05T21:53:08.435Z,4.03
2022-10-05T21:55:36.408Z,2.30
2022-10-05T21:58:04.134Z,4.93
2022-10-05T22:00:31.773Z,2.60
2022-10-05T22:03:00.546Z,5.87
2022-10-05T22:05:28.009Z,5.10
2022-10-05T22:07:55.697Z,2.23
2022-10-05T22:10:23.077Z,3.00
2022-10-05T22:12:50.439Z,5.60
2022-10-05T22:15:17.976Z,5.77
2022-10-05T22:17:46.080Z,5.73
2022-10-05T22:20:15.461Z,2.50
2022-10-05T22:22:42.871Z,5.10
2022-10-05T22:25:10.381Z,4.43
2022-10-05T22:27:37.840Z,3.37
2022-10-05T22:30:06.023Z,4.20
2022-10-05T22:32:33.513Z,4.40
2022-10-05T22:35:00.944Z,5.73
2022-10-05T22:37:29.681Z,4.60
2022-10-05T22:39:57.076Z,4.10
2022-10-05T22:42:24.467Z,5.10
2022-10-05T22:44:51.915Z,8.03
2022-10-05T22:47:19.362Z,1.97
2022-10-05T22:49:46.733Z,3.33
2022-10-05T22:52:14.297Z,7.70
2022-10-05T22:54:43.050Z,2.60
2022-10-05T22:57:10.453Z,4.87
2022-10-05T22:59:37.846Z,2.03
2022-10-05T23:02:05.347Z,2.20
2022-10-05T23:04:32.775Z,4.47
2022-10-05T23:07:00.147Z,5.70
2022-10-05T23:09:27.536Z,3.23
2022-10-05T23:11:56.639Z,2.70
2022-10-05T23:14:24.020Z,1.23
2022-10-05T23:16:51.486Z,3.30
2022-10-05T23:19:19.238Z,1.43
2022-10-05T23:21:46.768Z,3.53
2022-10-05T23:24:14.190Z,4.43
2022-10-05T23:26:41.642Z,2.80
2022-10-05T23:29:10.509Z,5.60
2022-10-05T23:31:37.894Z,4.43
2022-10-05T23:34:05.284Z,2.37
2022-10-05T23:36:33.243Z,3.33
2022-10-05T23:39:00.944Z,3.73
2022-10-05T23:41:28.371Z,2.30
2022-10-05T23:43:55.832Z,2.00
2022-10-05T23:46:24.635Z,1.90
2022-10-05T23:48:53.114Z,3.90
2022-10-05T23:51:20.591Z,1.17
2022-10-05T23:53:48.009Z,3.40
2022-10-05T23:56:15.476Z,1.87
2022-10-05T23:58:42.869Z,2.67
